Search for airport 
image banner adimage banner ad
image banner ad

DNKT - Katsina/Katsina

Located in Katsina, Nigeria

ICAO - , IATA -

Data provided by Airmate  

General information

Coordinates: N13°0'27" E7°39'38"
Elevation is 1685 feet MSL.
 
Rated:
View ratings: [VIEW]


View others Airports in Katsina

Operational data

Open for public use
Current time UTC:
Current local time:
Weather
TAF: TAF DNKT 122300Z 1300/1406 18006KT 9999 FEW011 BECMG 1307/1309 25010KT BKN010 TEMPO 1311/1316 06020KT 5000 TSRA BKN009 FEW018CB
View NOTAMs / SUP AIP / TFR affecting this airport [VIEW]
Communications frequencies: [VIEW]

Runways:

RWY identifierQFULength (ft)Width (ft)SurfaceLDA (ft)
0545°11483148
23225°11483148

Airport contact information

Address: Katsina Nigeria

Satellite view of DNKT